Portada
METAR-TAF:

METAR-TAF

Aeroports :

Aeroport Internacional Pierre Elliott Trudeau

Montreal-Trudeau, Quebec, Canadà

latitud: 45-28N, longitud: 073-45W, altitud: 31 m

Observació

L'informe es va fer fa 39 minuts, a les 04:00 UTC
Vent 5 kt del Sud-Oest
Temperatura 18°C
Humitat 77%
Pressió 1020 hPa
Visibilitat: 24.1 km
Escasses núvols a una alçada de 15000 ft

METAR: CYUL 210400Z 23005KT 15SM FEW150 18/14 A3013 RMK AC2 SLP205 DENSITY ALT 300FT

Hora: 00:39 (04:39 UTC)

Pronòstic

L'informe es va fer fa 2 hores i 1 minuts, a les 02:38 UTC
Pronòstic vàlid del 21 a les 03 UTC al 21 a les 24 UTC
Vent 8 kt del Oest/Sud-Oest
Visibilitat: 10 km
Cel clar
Evolucionant progressivament
l' 21 a les 13 UTC al 21 a les 15 UTC
Vent 10 kt del Sud/Sud-Oest

TAF: CYUL 210238Z 2103/2124 25008KT P6SM SKC BECMG 2113/2115 21010KT RMK NXT FCST BY 210600Z

Observacions i pronòstics meteorològics de més de 4000 aeroports (METAR i TAF).

Les estacions disponibles són els punts grocs i vermells al mapa.

Posi el ratolí al punt desitjat per veure el nom de l'estació.

Feu clic per veure les observacions i els pronòstics meteorològics.

Per canviar el mapa: feu clic els botons verds amb una creu de color negre per apropar; al botó verd amb un guió per allunyar la imatge; o en les fletxes verdes per a mapes adjacents.


METAR-TAF: